Time;durP1;ratioP1;P1;durP2;ratioP2;P2;SDS_P1;SDS_P2;PMS_P1;PMS_P2;Temp;Humidity;BMP_temperature;BMP_pressure;BME280_temperature;BME280_humidity;BME280_pressure;Samples;Min_cycle;Max_cycle;Signal;HPM_P1;HPM_P2
2024/02/29 00:01:18;;;;;;;48.07;25.90;;;;;;;2.93;89.67;95762.31;5011966;28;20199;-78
2024/02/29 00:03:44;;;;;;;45.67;25.90;;;;;;;2.92;90.91;95759.84;5019908;28;20186;-77
2024/02/29 00:06:09;;;;;;;48.20;24.30;;;;;;;3.15;89.56;95760.94;5011350;28;20198;-78
2024/02/29 00:08:34;;;;;;;46.20;25.67;;;;;;;3.04;89.99;95766.75;5020465;28;20186;-77
2024/02/29 00:11:00;;;;;;;49.33;27.77;;;;;;;2.97;90.87;95774.00;5019274;28;20191;-78
2024/02/29 00:13:25;;;;;;;45.33;25.77;;;;;;;3.02;91.14;95764.31;4997673;28;20233;-78
2024/02/29 00:15:50;;;;;;;48.17;26.90;;;;;;;2.92;91.78;95765.81;5020170;28;20238;-78
2024/02/29 00:18:15;;;;;;;41.23;24.10;;;;;;;2.98;90.38;95765.41;5017205;28;20703;-77
2024/02/29 00:20:41;;;;;;;44.03;24.67;;;;;;;3.07;90.73;95758.88;5006100;28;20281;-78
2024/02/29 00:23:06;;;;;;;41.30;24.33;;;;;;;3.06;89.79;95758.03;5002318;28;20245;-78
2024/02/29 00:25:32;;;;;;;40.73;23.37;;;;;;;2.89;91.29;95749.75;5019537;28;20211;-78
2024/02/29 00:27:57;;;;;;;43.40;26.20;;;;;;;3.11;90.58;95757.75;5003395;28;20194;-78
2024/02/29 00:30:23;;;;;;;43.83;24.67;;;;;;;3.13;89.87;95749.03;5017113;28;21107;-78
2024/02/29 00:32:49;;;;;;;47.30;25.40;;;;;;;3.11;89.84;95750.88;5020703;28;20186;-78
2024/02/29 00:35:15;;;;;;;43.20;25.93;;;;;;;3.07;90.72;95741.72;5019555;28;20210;-78
2024/02/29 00:37:40;;;;;;;45.33;25.37;;;;;;;3.08;90.49;95739.97;5015365;28;20218;-78
2024/02/29 00:40:07;;;;;;;44.63;25.93;;;;;;;3.09;90.51;95739.91;5016529;28;20211;-78
2024/02/29 00:42:33;;;;;;;46.73;25.40;;;;;;;3.09;90.42;95736.50;5021550;28;20238;-78
2024/02/29 00:44:58;;;;;;;43.97;24.93;;;;;;;3.08;90.06;95729.72;5019882;28;20615;-77
2024/02/29 00:47:24;;;;;;;49.70;26.40;;;;;;;3.01;90.58;95738.75;4999889;28;20278;-78
2024/02/29 00:49:49;;;;;;;45.10;25.87;;;;;;;3.21;89.92;95729.78;5006595;28;20194;-78
2024/02/29 00:52:14;;;;;;;40.27;24.37;;;;;;;3.18;89.45;95730.81;5019559;28;20249;-78
2024/02/29 00:54:40;;;;;;;44.17;24.60;;;;;;;3.09;89.44;95726.22;5018984;28;20265;-78
2024/02/29 00:57:05;;;;;;;48.87;24.73;;;;;;;2.96;90.27;95726.19;5002400;28;20233;-78
2024/02/29 00:59:31;;;;;;;46.37;27.00;;;;;;;2.86;90.62;95722.56;5019640;28;20221;-78
2024/02/29 01:01:56;;;;;;;44.07;24.70;;;;;;;2.79;90.29;95724.69;5029776;28;20563;-78
2024/02/29 01:04:21;;;;;;;43.23;24.50;;;;;;;2.81;90.07;95724.59;5014651;28;20207;-78
2024/02/29 01:06:47;;;;;;;40.20;24.00;;;;;;;2.82;90.07;95721.09;5019962;28;20190;-78
2024/02/29 01:09:12;;;;;;;43.20;23.57;;;;;;;2.79;90.08;95714.44;5007048;28;20652;-78
2024/02/29 01:11:38;;;;;;;42.80;24.13;;;;;;;2.72;89.85;95717.47;5020414;28;20600;-78
2024/02/29 01:14:03;;;;;;;39.00;21.77;;;;;;;2.87;89.66;95718.25;5002323;28;20648;-78
2024/02/29 01:16:29;;;;;;;36.50;21.67;;;;;;;2.87;89.08;95716.50;5011409;28;20656;-78
2024/02/29 01:18:54;;;;;;;36.87;21.83;;;;;;;2.91;88.12;95720.53;5010836;28;20211;-77
2024/02/29 01:21:20;;;;;;;37.33;21.17;;;;;;;2.84;87.84;95711.59;5021041;28;20194;-79
2024/02/29 01:23:45;;;;;;;33.07;19.93;;;;;;;2.92;87.73;95705.97;5017079;28;20183;-78
2024/02/29 01:26:11;;;;;;;34.77;19.90;;;;;;;2.87;87.91;95711.38;5015794;28;20183;-77
2024/02/29 01:28:36;;;;;;;34.03;20.13;;;;;;;2.88;86.87;95702.78;5006252;28;20186;-78
2024/02/29 01:31:02;;;;;;;34.33;20.67;;;;;;;2.87;86.98;95696.00;5020706;28;20186;-78
2024/02/29 01:33:27;;;;;;;36.07;19.73;;;;;;;2.73;87.79;95688.34;5002747;28;20211;-78
2024/02/29 01:35:52;;;;;;;36.57;20.53;;;;;;;2.73;88.00;95689.16;5023910;28;20183;-78
2024/02/29 01:38:18;;;;;;;37.83;20.30;;;;;;;2.70;88.20;95683.41;5018969;28;20233;-78
2024/02/29 01:40:46;;;;;;;36.13;20.10;;;;;;;2.61;88.79;95682.25;5022366;28;20194;-78
2024/02/29 01:43:12;;;;;;;33.77;19.83;;;;;;;2.74;88.26;95679.72;5027283;28;20226;-78
2024/02/29 01:45:37;;;;;;;35.50;20.83;;;;;;;2.68;87.80;95672.44;5023273;28;20238;-78
2024/02/29 01:48:03;;;;;;;33.37;21.27;;;;;;;2.71;87.81;95673.06;5019687;28;20179;-78
2024/02/29 01:50:29;;;;;;;33.53;19.70;;;;;;;2.59;88.26;95675.59;5022486;28;20183;-79
2024/02/29 01:52:54;;;;;;;33.23;18.77;;;;;;;2.44;88.54;95665.34;5021417;28;20507;-78
2024/02/29 01:55:20;;;;;;;30.70;18.07;;;;;;;2.62;87.05;95660.00;5021174;28;20211;-77
2024/02/29 01:57:45;;;;;;;26.33;17.17;;;;;;;2.54;87.42;95661.28;5018718;28;20209;-78
2024/02/29 02:00:11;;;;;;;28.90;17.17;;;;;;;2.61;86.70;95659.16;5025058;28;20236;-78
2024/02/29 02:02:37;;;;;;;26.53;16.13;;;;;;;2.59;86.07;95660.19;5019899;28;20191;-78
2024/02/29 02:05:05;;;;;;;26.87;15.50;;;;;;;2.81;85.12;95655.34;5020109;28;20204;-79
2024/02/29 02:07:31;;;;;;;24.13;14.93;;;;;;;2.78;85.09;95653.81;5004219;28;20187;-78
2024/02/29 02:09:57;;;;;;;23.53;13.83;;;;;;;2.71;85.39;95647.41;5021270;28;20209;-78
2024/02/29 02:12:22;;;;;;;22.03;14.57;;;;;;;2.88;85.32;95651.47;5017844;28;20187;-77
2024/02/29 02:14:47;;;;;;;24.73;14.93;;;;;;;2.94;84.50;95645.97;5005778;28;20612;-78
2024/02/29 02:17:13;;;;;;;24.17;15.07;;;;;;;2.84;85.06;95661.13;5023145;28;20250;-78
2024/02/29 02:19:38;;;;;;;25.20;15.17;;;;;;;2.83;84.77;95653.53;5013724;28;20186;-78
2024/02/29 02:22:04;;;;;;;24.50;14.63;;;;;;;2.99;84.32;95645.63;5021667;28;20264;-77
2024/02/29 02:24:34;;;;;;;24.73;14.83;;;;;;;3.16;83.59;95649.69;5002150;28;20292;-78
2024/02/29 02:26:59;;;;;;;22.77;14.50;;;;;;;3.11;83.49;95648.25;5022996;28;20187;-79
2024/02/29 02:29:24;;;;;;;25.60;15.77;;;;;;;3.10;83.66;95644.03;5018584;28;20241;-78
2024/02/29 02:31:50;;;;;;;22.97;13.90;;;;;;;3.10;83.58;95638.91;5020892;28;20265;-79
2024/02/29 02:34:15;;;;;;;21.77;14.37;;;;;;;3.06;84.06;95634.88;5017513;28;20650;-78
2024/02/29 02:36:40;;;;;;;22.17;14.10;;;;;;;3.03;83.88;95639.41;5023790;28;20195;-78
2024/02/29 02:39:06;;;;;;;24.27;14.50;;;;;;;3.02;84.26;95637.78;5020844;28;20305;-78
2024/02/29 02:41:31;;;;;;;22.27;15.23;;;;;;;3.11;83.79;95643.13;5013938;28;20234;-78
2024/02/29 02:43:57;;;;;;;24.87;15.17;;;;;;;3.06;83.77;95634.88;5008810;28;20220;-79
2024/02/29 02:46:22;;;;;;;23.93;15.07;;;;;;;3.06;83.58;95634.06;5012618;28;20201;-77
2024/02/29 02:48:47;;;;;;;20.33;13.10;;;;;;;3.09;83.88;95636.41;4999535;28;20194;-78
2024/02/29 02:51:13;;;;;;;22.83;14.00;;;;;;;3.07;83.14;95628.00;5020658;28;20183;-79
2024/02/29 02:53:38;;;;;;;21.90;13.87;;;;;;;3.03;83.86;95626.56;5020450;28;20669;-77
2024/02/29 02:56:04;;;;;;;22.80;13.50;;;;;;;3.11;83.36;95622.59;5018895;28;20222;-78
2024/02/29 02:58:30;;;;;;;20.97;13.67;;;;;;;3.21;82.71;95622.00;5030178;28;20481;-79
2024/02/29 03:00:55;;;;;;;23.40;14.20;;;;;;;3.06;82.86;95621.25;5026013;28;20809;-79
2024/02/29 03:03:21;;;;;;;24.67;15.23;;;;;;;2.99;84.00;95613.09;5017507;28;20183;-79
2024/02/29 03:05:46;;;;;;;24.20;15.73;;;;;;;2.92;84.36;95606.75;5013725;28;20246;-79
2024/02/29 03:08:12;;;;;;;25.50;15.17;;;;;;;2.96;84.08;95613.31;5015067;28;20193;-79
2024/02/29 03:10:37;;;;;;;24.63;14.30;;;;;;;2.85;84.25;95602.94;5018970;28;20191;-77
2024/02/29 03:13:03;;;;;;;24.13;14.53;;;;;;;3.06;83.46;95611.78;5018002;28;20179;-79
2024/02/29 03:15:28;;;;;;;22.57;13.47;;;;;;;3.07;83.31;95603.16;5034869;28;20305;-79
2024/02/29 03:17:57;;;;;;;21.87;13.33;;;;;;;3.06;82.44;95593.84;5013421;28;20210;-77
2024/02/29 03:20:23;;;;;;;23.37;13.37;;;;;;;3.02;82.89;95591.59;5006916;28;20197;-79
2024/02/29 03:22:48;;;;;;;21.10;13.83;;;;;;;3.02;82.65;95594.16;5001681;28;20192;-78
2024/02/29 03:25:13;;;;;;;22.90;12.20;;;;;;;3.00;82.85;95594.22;5023009;28;20206;-79
2024/02/29 03:27:39;;;;;;;19.60;12.53;;;;;;;2.83;82.85;95592.78;5011578;28;20680;-79
2024/02/29 03:30:05;;;;;;;20.03;12.73;;;;;;;2.75;83.95;95586.50;5019025;28;20182;-78
2024/02/29 03:32:30;;;;;;;20.47;13.03;;;;;;;2.63;83.76;95590.66;5012276;28;20199;-79
2024/02/29 03:34:55;;;;;;;20.13;12.97;;;;;;;2.67;84.38;95592.13;5011316;28;20217;-79
2024/02/29 03:37:21;;;;;;;21.17;12.53;;;;;;;2.62;84.61;95589.03;5017866;28;20191;-79
2024/02/29 03:39:46;;;;;;;21.73;13.20;;;;;;;2.63;85.00;95589.84;5014302;28;20199;-79
2024/02/29 03:42:11;;;;;;;23.20;13.60;;;;;;;2.69;84.65;95581.78;5018306;28;20190;-79
2024/02/29 03:44:37;;;;;;;22.70;13.90;;;;;;;2.79;84.19;95585.38;5027200;28;20214;-77
2024/02/29 03:47:04;;;;;;;22.53;14.37;;;;;;;2.72;85.19;95579.81;5020735;28;20262;-79
2024/02/29 03:49:29;;;;;;;23.33;14.23;;;;;;;2.83;85.05;95576.59;5013703;28;20215;-78
2024/02/29 03:51:55;;;;;;;22.70;14.87;;;;;;;2.88;85.69;95577.09;5017738;28;20598;-79
2024/02/29 03:54:20;;;;;;;27.47;16.37;;;;;;;2.96;86.04;95579.97;5016722;28;20626;-79
2024/02/29 03:56:46;;;;;;;26.40;15.50;;;;;;;3.08;85.69;95574.03;5019495;28;20719;-79
2024/02/29 03:59:11;;;;;;;26.07;15.73;;;;;;;3.13;85.38;95573.72;5015294;28;20204;-79
2024/02/29 04:01:37;;;;;;;28.23;16.30;;;;;;;3.08;86.24;95571.47;5014271;28;20236;-79
2024/02/29 04:04:02;;;;;;;27.10;16.80;;;;;;;3.17;85.42;95575.16;5018114;28;20210;-78
2024/02/29 04:06:27;;;;;;;26.63;16.13;;;;;;;3.28;85.37;95574.47;5011489;28;20252;-79
2024/02/29 04:08:53;;;;;;;28.03;16.87;;;;;;;3.16;85.48;95563.25;5012320;28;20182;-79
2024/02/29 04:11:18;;;;;;;27.17;16.40;;;;;;;3.19;84.74;95569.94;5003552;28;20203;-78
2024/02/29 04:13:45;;;;;;;24.07;16.43;;;;;;;3.15;85.39;95564.19;4998251;28;20237;-78
2024/02/29 04:16:10;;;;;;;27.80;16.60;;;;;;;3.24;84.67;95567.88;5011894;28;20194;-79
2024/02/29 04:18:36;;;;;;;24.40;16.07;;;;;;;3.32;83.04;95566.44;5019290;28;20214;-79
2024/02/29 04:21:01;;;;;;;22.23;14.87;;;;;;;3.23;82.55;95563.69;5017342;28;20244;-78
2024/02/29 04:23:27;;;;;;;21.83;15.10;;;;;;;3.07;83.20;95567.25;4998676;28;20199;-78
2024/02/29 04:25:52;;;;;;;24.67;14.90;;;;;;;2.99;83.70;95560.97;5020297;28;20187;-79
2024/02/29 04:28:18;;;;;;;23.47;14.87;;;;;;;2.99;83.69;95566.94;5017526;28;20245;-79
2024/02/29 04:30:43;;;;;;;22.50;15.07;;;;;;;2.95;83.07;95565.50;5018419;28;20202;-78
2024/02/29 04:33:08;;;;;;;21.17;13.50;;;;;;;2.88;83.79;95561.69;5003192;28;20198;-79
2024/02/29 04:35:34;;;;;;;23.83;14.97;;;;;;;2.89;84.12;95563.34;5019424;28;20217;-79
2024/02/29 04:37:59;;;;;;;20.07;13.13;;;;;;;2.80;83.24;95561.38;5017928;28;20223;-79
2024/02/29 04:40:29;;;;;;;20.90;13.07;;;;;;;2.91;83.16;95555.53;5010164;28;20254;-79
2024/02/29 04:42:54;;;;;;;20.80;12.47;;;;;;;2.92;82.75;95557.22;5006913;28;20599;-80
2024/02/29 04:45:23;;;;;;;19.17;13.30;;;;;;;2.80;82.92;95548.56;5007789;28;20213;-78
2024/02/29 04:47:48;;;;;;;22.77;13.97;;;;;;;2.76;82.50;95550.50;5020758;28;20198;-79
2024/02/29 04:50:13;;;;;;;19.73;13.70;;;;;;;2.69;82.56;95556.94;5022629;28;20199;-77
2024/02/29 04:52:39;;;;;;;17.27;11.80;;;;;;;2.63;82.33;95541.94;5024696;28;20191;-79
2024/02/29 04:55:04;;;;;;;19.30;11.87;;;;;;;2.61;82.58;95545.53;5022788;28;20202;-79
2024/02/29 04:57:30;;;;;;;19.43;12.40;;;;;;;2.47;82.38;95549.84;5019008;28;20282;-76
2024/02/29 04:59:55;;;;;;;17.60;10.80;;;;;;;2.45;82.66;95541.41;5018468;28;20183;-79
2024/02/29 05:02:21;;;;;;;18.37;11.33;;;;;;;2.40;82.87;95533.19;5019445;28;20183;-79
2024/02/29 05:04:46;;;;;;;18.10;10.80;;;;;;;2.38;82.63;95545.25;5015463;28;20635;-79
2024/02/29 05:07:11;;;;;;;16.93;10.53;;;;;;;2.31;82.72;95538.09;5012440;28;20198;-77
2024/02/29 05:09:37;;;;;;;17.93;11.57;;;;;;;2.27;82.76;95529.75;5021034;28;20692;-79
2024/02/29 05:12:02;;;;;;;18.40;10.37;;;;;;;2.26;82.68;95528.13;5020809;28;20240;-79
2024/02/29 05:14:27;;;;;;;18.43;10.30;;;;;;;2.23;82.66;95520.63;5016659;28;20222;-79
2024/02/29 05:16:53;;;;;;;18.87;11.50;;;;;;;2.17;83.03;95518.47;5013363;28;20187;-78
2024/02/29 05:19:18;;;;;;;16.97;10.43;;;;;;;2.14;82.88;95514.34;5002130;28;20211;-79
2024/02/29 05:21:45;;;;;;;16.07;10.43;;;;;;;2.15;83.21;95517.75;5019368;28;20190;-79
2024/02/29 05:24:10;;;;;;;20.93;10.97;;;;;;;2.13;83.17;95527.28;5015394;28;20214;-78
2024/02/29 05:26:35;;;;;;;19.27;12.90;;;;;;;2.14;83.33;95519.47;5019770;28;20197;-78
2024/02/29 05:29:01;;;;;;;23.27;13.70;;;;;;;2.13;82.88;95517.03;5013920;28;20264;-78
2024/02/29 05:31:26;;;;;;;19.37;12.80;;;;;;;2.14;82.56;95521.22;5015268;28;20210;-77
2024/02/29 05:33:51;;;;;;;21.53;12.40;;;;;;;2.10;82.41;95519.75;5014502;28;20207;-78
2024/02/29 05:36:17;;;;;;;21.73;12.90;;;;;;;2.03;82.73;95513.38;5007404;28;20210;-78
2024/02/29 05:38:47;;;;;;;20.97;13.27;;;;;;;2.05;82.34;95514.94;5019014;28;20281;-78
2024/02/29 05:41:12;;;;;;;23.47;13.07;;;;;;;1.99;82.96;95518.69;5008859;28;20688;-77
2024/02/29 05:43:38;;;;;;;19.60;12.83;;;;;;;1.91;83.40;95518.34;5020082;28;20171;-77
2024/02/29 05:46:03;;;;;;;20.70;13.53;;;;;;;1.95;82.89;95512.13;5011839;28;21459;-78
2024/02/29 05:48:30;;;;;;;19.40;12.87;;;;;;;1.93;83.29;95515.69;5016370;28;20218;-78
2024/02/29 05:50:57;;;;;;;24.00;13.07;;;;;;;1.91;83.07;95510.66;5009318;28;20246;-78
2024/02/29 05:53:22;;;;;;;21.20;12.50;;;;;;;1.94;83.28;95505.38;5019191;28;20203;-77
2024/02/29 05:55:48;;;;;;;19.07;12.13;;;;;;;1.94;83.00;95505.38;5022289;28;20203;-78
2024/02/29 05:58:13;;;;;;;19.40;11.50;;;;;;;1.94;82.90;95504.53;5022641;28;20202;-78
2024/02/29 06:00:38;;;;;;;22.33;12.97;;;;;;;1.94;83.19;95490.00;5022732;28;20284;-79
2024/02/29 06:03:04;;;;;;;19.10;13.20;;;;;;;1.96;83.32;95497.59;5024499;28;20207;-79
2024/02/29 06:05:30;;;;;;;18.70;12.03;;;;;;;2.01;83.05;95495.53;5007708;28;20226;-79
2024/02/29 06:07:56;;;;;;;21.60;13.20;;;;;;;2.00;83.20;95488.78;5023903;28;20199;-78
2024/02/29 06:10:22;;;;;;;19.50;12.50;;;;;;;2.03;83.25;95487.75;5015755;28;20230;-79
2024/02/29 06:12:47;;;;;;;19.73;12.27;;;;;;;2.09;83.11;95487.38;5030281;28;20191;-78
2024/02/29 06:15:13;;;;;;;23.27;12.40;;;;;;;2.15;83.21;95487.00;5022774;28;20202;-76
2024/02/29 06:17:38;;;;;;;23.50;14.00;;;;;;;2.10;83.86;95484.72;5005867;28;20253;-77
2024/02/29 06:20:10;;;;;;;20.03;12.63;;;;;;;2.18;82.82;95477.38;5022739;28;20195;-77
2024/02/29 06:22:36;;;;;;;22.23;13.77;;;;;;;2.24;82.98;95476.16;5009754;28;20210;-77
2024/02/29 06:25:03;;;;;;;22.73;14.77;;;;;;;2.23;82.60;95482.22;5026293;28;20572;-77
2024/02/29 06:27:29;;;;;;;24.53;15.13;;;;;;;2.26;83.00;95475.13;5022532;28;20182;-78
2024/02/29 06:29:54;;;;;;;23.70;16.27;;;;;;;2.33;83.02;95470.44;5008671;28;20195;-78
2024/02/29 06:32:19;;;;;;;23.33;15.10;;;;;;;2.27;83.03;95465.69;5013763;28;20226;-76
2024/02/29 06:34:44;;;;;;;22.47;14.70;;;;;;;2.38;83.01;95463.25;5021851;28;20202;-76
2024/02/29 06:37:11;;;;;;;19.47;13.53;;;;;;;2.52;82.79;95458.06;5006846;28;20256;-77
2024/02/29 06:39:36;;;;;;;18.40;12.83;;;;;;;2.51;82.48;95460.72;5015250;28;20207;-78
2024/02/29 06:42:03;;;;;;;17.93;12.93;;;;;;;2.63;81.72;95456.53;5019340;28;20182;-78
2024/02/29 06:44:28;;;;;;;17.50;11.60;;;;;;;2.67;82.07;95453.66;5024162;28;20199;-77
2024/02/29 06:46:54;;;;;;;16.93;11.17;;;;;;;2.76;81.79;95447.94;5025965;28;20237;-78
2024/02/29 06:49:23;;;;;;;19.03;11.47;;;;;;;2.82;81.68;95452.63;5020234;28;20183;-78
2024/02/29 06:51:49;;;;;;;18.17;10.83;;;;;;;2.85;81.61;95443.94;5020018;28;20653;-78
2024/02/29 06:54:14;;;;;;;15.17;11.13;;;;;;;2.95;81.71;95455.19;5009184;28;20209;-78
2024/02/29 06:56:39;;;;;;;15.37;11.43;;;;;;;3.06;81.70;95452.72;5008932;28;20183;-77
2024/02/29 06:59:05;;;;;;;15.83;9.30;;;;;;;3.07;81.63;95451.78;5020794;28;20195;-78
2024/02/29 07:01:32;;;;;;;14.20;10.27;;;;;;;3.25;81.34;95454.03;5025037;28;20213;-77
2024/02/29 07:04:00;;;;;;;14.03;9.13;;;;;;;3.27;81.10;95447.03;5005655;28;20267;-75
2024/02/29 07:06:26;;;;;;;14.13;9.37;;;;;;;3.40;80.65;95447.84;5005664;28;20183;-76
2024/02/29 07:08:52;;;;;;;13.33;9.40;;;;;;;3.44;81.10;95443.31;5014224;28;20171;-76
2024/02/29 07:11:17;;;;;;;14.07;9.37;;;;;;;3.48;81.24;95443.00;5003727;28;20187;-79
2024/02/29 07:13:43;;;;;;;16.43;10.90;;;;;;;3.56;81.44;95450.19;5008648;28;20179;-80
2024/02/29 07:16:09;;;;;;;15.37;11.17;;;;;;;3.58;80.92;95446.56;5004583;28;20211;-77
2024/02/29 07:18:35;;;;;;;14.40;10.30;;;;;;;3.69;80.59;95449.19;5028809;28;20230;-78
2024/02/29 07:21:00;;;;;;;20.13;12.47;;;;;;;3.83;80.98;95444.84;5020965;28;20282;-77
2024/02/29 07:23:26;;;;;;;19.50;12.77;;;;;;;3.94;80.82;95452.59;5018073;28;20209;-78
2024/02/29 07:25:51;;;;;;;17.97;12.30;;;;;;;4.01;80.40;95451.22;5006525;28;20194;-77
2024/02/29 07:28:17;;;;;;;23.53;13.37;;;;;;;4.15;80.33;95448.50;5007432;28;20175;-77
2024/02/29 07:30:42;;;;;;;23.13;14.53;;;;;;;4.27;79.61;95449.34;5018389;28;20198;-77
2024/02/29 07:33:07;;;;;;;20.83;14.37;;;;;;;4.38;80.01;95444.25;5013749;28;20228;-78
2024/02/29 07:35:33;;;;;;;23.90;15.53;;;;;;;4.44;79.75;95448.13;5013597;28;20234;-77
2024/02/29 07:37:58;;;;;;;25.30;14.37;;;;;;;4.54;79.42;95452.47;5009010;28;20756;-77
2024/02/29 07:40:24;;;;;;;24.53;14.10;;;;;;;4.58;78.71;95450.47;5014984;28;20207;-78
2024/02/29 07:42:49;;;;;;;23.73;15.00;;;;;;;4.58;78.37;95453.06;5018936;28;20184;-78
2024/02/29 07:45:15;;;;;;;24.03;14.83;;;;;;;4.67;78.88;95454.94;5017599;28;20273;-77
2024/02/29 07:47:40;;;;;;;25.13;16.00;;;;;;;4.79;78.67;95445.50;5002299;28;20621;-78
2024/02/29 07:50:07;;;;;;;28.33;16.07;;;;;;;4.87;79.15;95448.34;5014853;28;20192;-78
2024/02/29 07:52:32;;;;;;;27.60;15.00;;;;;;;4.94;79.02;95446.91;5021312;28;20276;-78
2024/02/29 07:54:58;;;;;;;23.93;15.20;;;;;;;5.05;78.83;95451.28;5009880;28;20245;-78
2024/02/29 07:57:23;;;;;;;25.53;15.97;;;;;;;5.10;78.71;95451.72;5018834;28;20187;-77
2024/02/29 07:59:48;;;;;;;25.10;15.60;;;;;;;5.28;78.63;95442.59;5021292;28;20739;-77
2024/02/29 08:02:14;;;;;;;24.30;15.30;;;;;;;5.45;78.13;95443.06;5005712;28;20193;-78
2024/02/29 08:04:39;;;;;;;22.83;15.37;;;;;;;5.54;77.91;95448.31;5006761;28;20706;-78
2024/02/29 08:07:06;;;;;;;25.67;16.43;;;;;;;5.65;78.16;95444.88;5016111;28;20560;-78
2024/02/29 08:09:33;;;;;;;29.97;19.73;;;;;;;5.74;77.38;95439.00;5011390;28;20266;-78
2024/02/29 08:11:58;;;;;;;24.77;16.77;;;;;;;5.64;76.92;95444.06;5019061;28;20739;-78
2024/02/29 08:14:24;;;;;;;22.90;16.33;;;;;;;5.67;76.24;95440.47;5022950;28;20334;-78
2024/02/29 08:16:49;;;;;;;26.73;17.37;;;;;;;5.63;75.91;95433.91;5010085;28;20691;-77
2024/02/29 08:19:16;;;;;;;25.83;15.87;;;;;;;5.58;75.59;95438.59;5016689;28;20203;-78
2024/02/29 08:21:41;;;;;;;23.37;16.53;;;;;;;5.67;75.69;95438.69;5020767;28;20185;-77
2024/02/29 08:24:07;;;;;;;24.10;16.03;;;;;;;5.77;75.95;95430.25;5018642;28;20206;-78
2024/02/29 08:26:32;;;;;;;30.50;17.37;;;;;;;5.88;75.93;95419.91;5017075;28;20198;-78
2024/02/29 08:28:57;;;;;;;23.10;16.27;;;;;;;5.74;76.05;95423.56;5008785;28;20183;-77
2024/02/29 08:31:23;;;;;;;22.43;15.83;;;;;;;5.88;76.07;95433.59;5015845;28;20269;-77
2024/02/29 08:33:49;;;;;;;22.50;13.50;;;;;;;6.01;75.64;95425.75;5003057;28;20661;-78
2024/02/29 08:36:14;;;;;;;21.30;13.50;;;;;;;6.04;75.56;95422.13;5024114;28;20193;-78
2024/02/29 08:38:40;;;;;;;20.20;14.37;;;;;;;6.20;75.68;95427.69;5025784;28;20285;-78
2024/02/29 08:41:05;;;;;;;26.50;17.47;;;;;;;6.28;75.11;95430.47;5010536;28;20204;-77
2024/02/29 08:43:31;;;;;;;27.13;17.23;;;;;;;6.18;74.53;95422.66;5004793;28;20228;-78
2024/02/29 08:45:56;;;;;;;28.43;18.07;;;;;;;6.20;74.23;95431.06;5019907;28;20187;-78
2024/02/29 08:48:21;;;;;;;26.57;18.70;;;;;;;6.16;73.82;95421.94;5015764;28;20637;-77
2024/02/29 08:50:47;;;;;;;26.63;17.57;;;;;;;6.35;73.07;95418.69;5011836;28;20240;-77
2024/02/29 08:53:12;;;;;;;23.97;16.10;;;;;;;6.63;72.31;95419.03;5001875;28;20211;-78
2024/02/29 08:55:38;;;;;;;22.13;15.47;;;;;;;6.71;72.53;95414.84;5006641;28;20580;-77
2024/02/29 08:58:03;;;;;;;19.40;13.20;;;;;;;6.82;71.65;95413.97;5016974;28;20597;-78
2024/02/29 09:00:29;;;;;;;19.97;13.70;;;;;;;6.91;70.85;95408.03;4997372;28;20538;-78
2024/02/29 09:02:54;;;;;;;17.87;13.63;;;;;;;6.80;70.48;95408.09;5009011;28;20684;-79
2024/02/29 09:05:19;;;;;;;21.43;14.37;;;;;;;6.66;70.89;95411.00;5012882;28;20221;-78
2024/02/29 09:07:45;;;;;;;21.70;14.43;;;;;;;7.04;69.62;95402.66;5020593;28;20190;-78
2024/02/29 09:10:12;;;;;;;21.13;13.70;;;;;;;7.02;70.26;95396.81;5019577;28;20190;-78
2024/02/29 09:12:38;;;;;;;20.40;13.27;;;;;;;7.13;68.72;95401.06;5024390;28;20183;-78
2024/02/29 09:15:03;;;;;;;16.07;12.53;;;;;;;6.94;68.43;95397.44;5021283;28;20857;-78
2024/02/29 09:17:29;;;;;;;18.97;12.60;;;;;;;7.36;67.41;95392.16;5015856;28;20191;-78
2024/02/29 09:19:55;;;;;;;19.97;13.43;;;;;;;7.42;67.16;95394.25;5016862;28;20203;-78
2024/02/29 09:22:21;;;;;;;18.57;13.53;;;;;;;7.20;67.70;95384.91;5016620;28;20187;-78
2024/02/29 09:24:46;;;;;;;17.50;12.00;;;;;;;7.20;66.83;95379.75;4997500;28;20207;-77
2024/02/29 09:27:13;;;;;;;16.63;11.57;;;;;;;7.26;65.31;95384.41;5020051;28;20186;-78
2024/02/29 09:29:38;;;;;;;17.83;11.10;;;;;;;7.18;66.17;95376.47;5011305;28;20186;-77
2024/02/29 09:32:04;;;;;;;16.60;10.90;;;;;;;7.19;66.75;95379.88;5013912;28;20191;-78
2024/02/29 09:34:30;;;;;;;14.20;10.53;;;;;;;7.38;64.96;95370.41;5018836;28;20763;-79
2024/02/29 09:36:56;;;;;;;17.37;11.53;;;;;;;7.42;64.97;95365.81;5023348;28;20732;-78
2024/02/29 09:39:21;;;;;;;18.03;11.90;;;;;;;7.43;65.12;95374.38;5021172;28;20207;-78
2024/02/29 09:41:46;;;;;;;15.60;10.70;;;;;;;7.69;63.97;95379.88;5013987;28;20201;-77
2024/02/29 09:44:13;;;;;;;12.93;10.03;;;;;;;7.63;63.54;95373.47;5018288;28;20214;-78
2024/02/29 09:46:39;;;;;;;15.90;10.60;;;;;;;7.45;65.03;95365.53;5021600;28;20717;-77
2024/02/29 09:49:04;;;;;;;15.17;10.53;;;;;;;7.58;64.28;95373.84;5022246;28;20214;-78
2024/02/29 09:51:30;;;;;;;14.07;10.73;;;;;;;7.81;63.69;95373.63;5013133;28;20201;-78
2024/02/29 09:53:57;;;;;;;18.43;10.47;;;;;;;7.80;63.68;95365.06;5020738;28;20214;-78
2024/02/29 09:56:23;;;;;;;17.93;12.77;;;;;;;7.90;64.88;95360.69;5005956;28;20221;-78
2024/02/29 09:58:52;;;;;;;21.60;13.63;;;;;;;8.04;64.97;95356.06;5013091;28;20210;-77
2024/02/29 10:01:18;;;;;;;19.80;12.80;;;;;;;8.10;64.60;95348.56;5014782;28;20266;-78
2024/02/29 10:03:43;;;;;;;19.40;13.50;;;;;;;8.29;64.55;95345.16;5019457;28;20218;-78
2024/02/29 10:06:10;;;;;;;17.30;12.27;;;;;;;8.30;64.07;95340.78;5018219;28;20183;-78
2024/02/29 10:08:38;;;;;;;15.60;11.73;;;;;;;8.03;64.72;95341.50;5016400;28;20178;-79
2024/02/29 10:11:03;;;;;;;18.73;12.77;;;;;;;8.39;64.12;95327.88;5023839;28;20249;-78
2024/02/29 10:13:36;;;;;;;16.87;12.43;;;;;;;8.31;64.84;95327.75;5011149;28;20680;-77
2024/02/29 10:16:02;;;;;;;16.17;12.60;;;;;;;8.57;63.95;95317.63;5007731;28;20187;-78
2024/02/29 10:18:32;;;;;;;16.87;12.10;;;;;;;8.56;63.45;95308.22;5020004;28;20214;-78
2024/02/29 10:20:57;;;;;;;17.00;12.70;;;;;;;8.28;64.23;95319.41;5014029;28;20180;-77
2024/02/29 10:23:22;;;;;;;16.90;12.40;;;;;;;8.60;63.03;95319.94;5018899;28;20259;-78
2024/02/29 10:25:50;;;;;;;21.23;13.57;;;;;;;8.65;63.99;95307.38;5012524;28;20234;-78
2024/02/29 10:28:15;;;;;;;16.63;11.97;;;;;;;8.67;63.91;95305.47;5006528;28;20186;-78
2024/02/29 10:30:41;;;;;;;17.03;12.07;;;;;;;8.62;63.68;95307.66;5008145;28;20182;-78
2024/02/29 10:33:09;;;;;;;20.50;13.10;;;;;;;8.85;62.94;95304.72;5003482;28;20182;-78
2024/02/29 10:35:35;;;;;;;17.63;11.70;;;;;;;8.99;62.16;95294.69;5020585;28;20207;-77
2024/02/29 10:38:04;;;;;;;15.20;11.77;;;;;;;8.81;62.29;95293.81;5011385;28;20219;-78
2024/02/29 10:40:30;;;;;;;17.53;12.90;;;;;;;8.97;62.27;95293.22;5020769;28;20665;-78
2024/02/29 10:42:56;;;;;;;19.40;12.97;;;;;;;9.11;63.23;95291.94;5023935;28;20206;-77
2024/02/29 10:45:25;;;;;;;17.63;12.93;;;;;;;9.13;62.58;95290.00;5009701;28;20285;-78
2024/02/29 10:48:27;;;;;;;23.97;12.57;;;;;;;9.36;62.67;95283.44;5011034;28;20224;-78
2024/02/29 10:51:02;;;;;;;18.33;12.17;;;;;;;9.54;61.86;95281.69;5025444;28;20699;-78
2024/02/29 10:53:37;;;;;;;19.17;13.30;;;;;;;9.05;62.94;95282.94;5023648;28;20182;-77
2024/02/29 10:56:13;;;;;;;17.83;12.23;;;;;;;9.58;61.34;95280.44;5010338;28;20186;-78
2024/02/29 10:58:42;;;;;;;16.60;12.07;;;;;;;9.58;60.87;95272.66;5023396;28;20403;-77
2024/02/29 11:01:07;;;;;;;16.33;12.40;;;;;;;9.56;61.53;95266.81;5010633;28;20725;-78
2024/02/29 11:03:33;;;;;;;18.97;13.10;;;;;;;9.57;62.66;95265.03;5010525;28;20461;-78
2024/02/29 11:05:59;;;;;;;19.73;13.40;;;;;;;9.58;60.69;95261.47;5020188;28;20193;-77
2024/02/29 11:08:25;;;;;;;17.90;12.10;;;;;;;9.69;60.51;95253.44;5001707;28;20262;-77
2024/02/29 11:10:54;;;;;;;14.80;12.20;;;;;;;9.79;59.41;95249.00;5011233;28;20282;-77
2024/02/29 11:13:19;;;;;;;14.27;11.63;;;;;;;10.02;60.11;95251.13;5008569;28;20257;-78
2024/02/29 11:15:45;;;;;;;17.17;12.73;;;;;;;9.90;59.76;95242.78;5019863;28;20211;-77
2024/02/29 11:18:21;;;;;;;18.37;14.07;;;;;;;9.95;59.89;95248.31;5003854;28;20286;-78